createdAt,value
2019-06-20T00:00:09.475Z,17.90
2019-06-20T00:02:38.984Z,17.80
2019-06-20T00:05:08.196Z,17.80
2019-06-20T00:07:37.048Z,17.80
2019-06-20T00:10:06.152Z,17.80
2019-06-20T00:12:34.601Z,17.80
2019-06-20T00:15:03.425Z,17.80
2019-06-20T00:17:31.923Z,17.80
2019-06-20T00:20:00.374Z,17.80
2019-06-20T00:22:28.809Z,17.90
2019-06-20T00:24:57.256Z,17.90
2019-06-20T00:27:25.701Z,17.90
2019-06-20T00:29:54.214Z,18.00
2019-06-20T00:32:22.865Z,18.00
2019-06-20T00:34:51.337Z,18.10
2019-06-20T00:37:19.772Z,18.10
2019-06-20T00:39:48.224Z,18.10
2019-06-20T00:42:16.729Z,18.10
2019-06-20T00:44:45.174Z,18.10
2019-06-20T00:47:13.621Z,18.20
2019-06-20T00:49:42.231Z,18.10
2019-06-20T00:52:10.656Z,18.10
2019-06-20T00:54:39.138Z,18.10
2019-06-20T00:57:07.636Z,18.00
2019-06-20T00:59:36.065Z,18.00
2019-06-20T01:02:04.521Z,18.00
2019-06-20T01:04:32.989Z,18.00
2019-06-20T01:07:01.424Z,18.00
2019-06-20T01:09:29.850Z,18.00
2019-06-20T01:11:58.325Z,18.00
2019-06-20T01:14:26.753Z,18.00
2019-06-20T01:16:55.184Z,17.80
2019-06-20T01:19:23.632Z,17.70
2019-06-20T01:21:52.066Z,17.70
2019-06-20T01:24:20.501Z,17.70
2019-06-20T01:26:48.953Z,17.70
2019-06-20T01:29:17.394Z,17.70
2019-06-20T01:31:45.925Z,17.70
2019-06-20T01:34:14.356Z,17.70
2019-06-20T01:36:42.849Z,17.70
2019-06-20T01:39:11.420Z,17.80
2019-06-20T01:41:39.858Z,17.80
2019-06-20T01:44:08.285Z,17.90
2019-06-20T01:46:36.804Z,17.90
2019-06-20T01:49:05.605Z,17.90
2019-06-20T01:51:34.044Z,17.90
2019-06-20T01:54:02.566Z,17.80
2019-06-20T01:56:31.077Z,17.80
2019-06-20T01:58:59.505Z,17.70
2019-06-20T02:01:27.940Z,17.70
2019-06-20T02:03:56.390Z,17.60
2019-06-20T02:06:24.837Z,17.60
2019-06-20T02:08:53.280Z,17.40
2019-06-20T02:11:21.961Z,17.40
2019-06-20T02:14:06.107Z,17.30
2019-06-20T02:16:20.565Z,17.20
2019-06-20T02:18:49.053Z,17.10
2019-06-20T02:21:17.606Z,17.10
2019-06-20T02:23:46.119Z,17.10
2019-06-20T02:26:14.601Z,17.10
2019-06-20T02:28:43.030Z,17.10
2019-06-20T02:31:11.541Z,17.10
2019-06-20T02:33:40.036Z,17.20
2019-06-20T02:36:08.484Z,17.10
2019-06-20T02:38:36.998Z,17.10
2019-06-20T02:41:05.499Z,17.10
2019-06-20T02:43:34.004Z,17.00
2019-06-20T02:46:02.569Z,17.10
2019-06-20T02:48:31.074Z,17.10
2019-06-20T02:50:59.523Z,17.10
2019-06-20T02:53:28.263Z,17.00
2019-06-20T02:55:56.868Z,17.00
2019-06-20T02:58:25.384Z,17.00
2019-06-20T03:00:58.545Z,17.00
2019-06-20T03:03:28.596Z,16.90
2019-06-20T03:05:57.572Z,16.80
2019-06-20T03:08:26.644Z,16.80
2019-06-20T03:10:55.205Z,16.90
2019-06-20T03:13:23.636Z,17.00
2019-06-20T03:15:52.289Z,17.00
2019-06-20T03:18:20.720Z,16.90
2019-06-20T03:20:49.330Z,17.00
2019-06-20T03:23:17.916Z,17.00
2019-06-20T03:25:46.341Z,17.00
2019-06-20T03:28:14.845Z,16.80
2019-06-20T03:30:43.471Z,16.80
2019-06-20T03:33:11.974Z,16.70
2019-06-20T03:35:40.916Z,16.80
2019-06-20T03:38:09.404Z,16.80
2019-06-20T03:40:37.979Z,16.70
2019-06-20T03:43:06.852Z,16.70
2019-06-20T03:45:35.940Z,16.60
2019-06-20T03:48:04.637Z,16.60
2019-06-20T03:50:33.413Z,16.60
2019-06-20T03:53:02.030Z,16.70
2019-06-20T03:55:33.770Z,16.70
2019-06-20T03:58:02.637Z,16.70
2019-06-20T04:00:33.444Z,16.80
2019-06-20T04:03:02.427Z,16.80
2019-06-20T04:05:31.275Z,16.60
2019-06-20T04:07:59.717Z,16.70
2019-06-20T04:10:28.156Z,16.70
2019-06-20T04:12:56.602Z,16.80
2019-06-20T04:15:26.792Z,16.70
2019-06-20T04:17:55.342Z,16.80
2019-06-20T04:20:23.894Z,16.70
2019-06-20T04:22:52.321Z,16.70
2019-06-20T04:25:20.750Z,16.80
2019-06-20T04:27:49.231Z,16.70
2019-06-20T04:30:17.726Z,16.70
2019-06-20T04:32:46.172Z,16.90
2019-06-20T04:35:14.844Z,16.80
2019-06-20T04:37:44.109Z,16.80
2019-06-20T04:40:13.108Z,16.90
2019-06-20T04:42:41.610Z,16.90
2019-06-20T04:45:12.031Z,17.00
2019-06-20T04:47:40.708Z,17.10
2019-06-20T04:50:09.185Z,17.00
2019-06-20T04:52:37.697Z,17.00
2019-06-20T04:55:06.696Z,17.00
2019-06-20T04:57:35.173Z,17.00
2019-06-20T05:00:08.285Z,17.00
2019-06-20T05:02:36.708Z,16.90
2019-06-20T05:05:08.733Z,16.90
2019-06-20T05:07:37.325Z,16.80
2019-06-20T05:10:06.780Z,16.80
2019-06-20T05:12:35.502Z,16.80
2019-06-20T05:15:05.678Z,16.80
2019-06-20T05:17:34.197Z,16.80
2019-06-20T05:20:03.010Z,16.70
2019-06-20T05:22:31.494Z,16.60
2019-06-20T05:24:59.921Z,16.60
2019-06-20T05:27:28.383Z,16.50
2019-06-20T05:29:56.814Z,16.50
2019-06-20T05:32:25.330Z,16.60
2019-06-20T05:34:53.781Z,16.60
2019-06-20T05:37:22.208Z,16.60
2019-06-20T05:39:50.695Z,16.50
2019-06-20T05:42:19.264Z,16.50
2019-06-20T05:44:47.768Z,16.60
2019-06-20T05:47:16.269Z,16.70
2019-06-20T05:49:44.808Z,16.80
2019-06-20T05:52:13.397Z,16.80
2019-06-20T05:54:41.951Z,16.80
2019-06-20T05:57:10.541Z,16.90
2019-06-20T05:59:39.145Z,16.90
2019-06-20T06:02:07.666Z,16.90
2019-06-20T06:04:36.093Z,16.90
2019-06-20T06:07:05.185Z,16.90
2019-06-20T06:09:33.766Z,17.00
2019-06-20T06:12:02.250Z,17.00
2019-06-20T06:14:31.584Z,17.10
2019-06-20T06:17:00.252Z,17.20
2019-06-20T06:19:28.721Z,17.20
2019-06-20T06:21:57.179Z,17.30
2019-06-20T06:24:25.613Z,17.50
2019-06-20T06:26:54.059Z,17.70
2019-06-20T06:29:22.561Z,18.00
2019-06-20T06:31:51.032Z,18.20
2019-06-20T06:34:21.981Z,18.80
2019-06-20T06:36:49.788Z,20.10
2019-06-20T06:39:18.269Z,22.40
2019-06-20T06:41:46.724Z,23.80
2019-06-20T06:44:15.157Z,24.40
2019-06-20T06:46:52.084Z,22.80
2019-06-20T06:49:13.855Z,22.20
2019-06-20T06:51:42.277Z,22.00
2019-06-20T06:54:10.733Z,23.20
2019-06-20T06:56:39.160Z,23.30
2019-06-20T06:59:07.667Z,23.30
2019-06-20T07:01:36.245Z,23.40
2019-06-20T07:04:04.933Z,23.20
2019-06-20T07:06:33.384Z,23.20
2019-06-20T07:09:01.917Z,23.10
2019-06-20T07:11:30.480Z,22.90
2019-06-20T07:13:58.933Z,23.70
2019-06-20T07:16:27.367Z,24.70
2019-06-20T07:18:56.017Z,26.10
2019-06-20T07:21:24.933Z,26.50
2019-06-20T07:23:53.426Z,27.50
2019-06-20T07:26:22.221Z,27.40
2019-06-20T07:28:51.578Z,27.20
2019-06-20T07:31:20.349Z,27.90
2019-06-20T07:33:49.050Z,26.00
2019-06-20T07:36:17.536Z,26.00
2019-06-20T07:38:45.985Z,26.40
2019-06-20T07:41:14.772Z,26.50
2019-06-20T07:43:43.255Z,25.00
2019-06-20T07:46:11.756Z,25.80
2019-06-20T07:48:40.369Z,26.80
2019-06-20T07:51:08.996Z,26.10
2019-06-20T07:53:37.559Z,27.10
2019-06-20T07:56:09.318Z,25.90
2019-06-20T07:58:36.321Z,24.30
2019-06-20T08:01:05.045Z,24.50
2019-06-20T08:03:33.630Z,25.60
2019-06-20T08:06:02.369Z,25.20
2019-06-20T08:08:30.869Z,24.60
2019-06-20T08:10:59.357Z,23.70
2019-06-20T08:13:27.788Z,23.10
2019-06-20T08:15:56.342Z,23.60
2019-06-20T08:18:24.873Z,25.50
2019-06-20T08:20:54.179Z,26.00
2019-06-20T08:23:22.616Z,27.10
2019-06-20T08:25:51.165Z,27.90
2019-06-20T08:28:19.729Z,27.30
2019-06-20T08:30:48.167Z,28.60
2019-06-20T08:33:16.597Z,29.20
2019-06-20T08:35:45.277Z,27.60
2019-06-20T08:38:13.775Z,29.00
2019-06-20T08:40:42.260Z,28.70
2019-06-20T08:43:10.898Z,29.60
2019-06-20T08:45:42.658Z,30.50
2019-06-20T08:48:12.032Z,28.80
2019-06-20T08:50:42.004Z,28.30
2019-06-20T08:53:10.535Z,27.60
2019-06-20T08:55:39.062Z,26.90
2019-06-20T08:58:10.781Z,26.40
2019-06-20T09:00:39.916Z,26.10
2019-06-20T09:03:08.477Z,24.90
2019-06-20T09:05:37.230Z,24.30
2019-06-20T09:08:11.561Z,24.50
2019-06-20T09:10:41.860Z,25.40
2019-06-20T09:13:12.063Z,26.10
2019-06-20T09:15:41.865Z,26.30
2019-06-20T09:18:10.639Z,26.30
2019-06-20T09:20:39.607Z,27.00
2019-06-20T09:23:10.557Z,27.50
2019-06-20T09:25:39.229Z,28.00
2019-06-20T09:28:08.211Z,28.20
2019-06-20T09:30:38.248Z,27.90
2019-06-20T09:33:07.045Z,28.40
2019-06-20T09:35:35.629Z,28.90
2019-06-20T09:38:04.992Z,29.90
2019-06-20T09:40:33.636Z,30.10
2019-06-20T09:43:02.904Z,30.70
2019-06-20T09:45:32.014Z,31.10
2019-06-20T09:48:00.616Z,31.10
2019-06-20T09:50:30.022Z,30.80
2019-06-20T09:52:58.504Z,30.70
2019-06-20T09:55:27.069Z,30.70
2019-06-20T09:57:55.940Z,30.80
2019-06-20T10:00:26.958Z,30.60
2019-06-20T10:02:56.238Z,30.50
2019-06-20T10:05:25.840Z,30.60
2019-06-20T10:07:54.578Z,28.20
2019-06-20T10:10:28.543Z,27.80
2019-06-20T10:12:57.465Z,28.30
2019-06-20T10:15:30.674Z,28.90
2019-06-20T10:17:59.181Z,27.80
2019-06-20T10:20:28.703Z,27.80
2019-06-20T10:22:57.525Z,27.90
2019-06-20T10:25:29.258Z,28.20
2019-06-20T10:27:58.128Z,28.80
2019-06-20T10:30:27.597Z,28.70
2019-06-20T10:32:57.547Z,28.00
2019-06-20T10:35:26.476Z,28.40
2019-06-20T10:37:56.965Z,28.60
2019-06-20T10:40:26.615Z,28.90
2019-06-20T10:42:55.099Z,29.60
2019-06-20T10:45:25.399Z,30.30
2019-06-20T10:47:54.379Z,30.50
2019-06-20T10:50:23.111Z,30.60
2019-06-20T10:52:52.083Z,29.90
2019-06-20T10:55:20.730Z,28.90
2019-06-20T10:57:49.846Z,28.90
2019-06-20T11:00:30.384Z,28.70
2019-06-20T11:02:49.601Z,28.20
2019-06-20T11:05:18.865Z,28.40
2019-06-20T11:07:47.670Z,27.80
2019-06-20T11:10:18.273Z,26.80
2019-06-20T11:12:52.311Z,26.20
2019-06-20T11:15:17.860Z,25.80
2019-06-20T11:17:46.464Z,25.60
2019-06-20T11:20:15.555Z,25.40
2019-06-20T11:22:45.298Z,24.90
2019-06-20T11:25:18.962Z,23.80
2019-06-20T11:27:47.320Z,22.90
2019-06-20T11:30:25.418Z,22.00
2019-06-20T11:32:54.012Z,21.30
2019-06-20T11:35:22.440Z,20.50
2019-06-20T11:37:50.939Z,20.00
2019-06-20T11:40:19.613Z,18.50
2019-06-20T11:42:48.037Z,18.50
2019-06-20T11:45:16.903Z,17.90
2019-06-20T11:47:47.080Z,18.00
2019-06-20T11:50:16.807Z,17.80
2019-06-20T11:52:45.962Z,17.20
2019-06-20T11:55:16.111Z,16.60
2019-06-20T11:57:44.821Z,16.30
2019-06-20T12:00:15.306Z,16.70
2019-06-20T12:02:44.365Z,17.00
2019-06-20T12:05:14.858Z,17.50
2019-06-20T12:07:45.331Z,18.30
2019-06-20T12:10:14.529Z,18.50
2019-06-20T12:12:42.973Z,18.70
2019-06-20T12:15:12.152Z,19.00
2019-06-20T12:17:42.781Z,19.20
2019-06-20T12:20:12.641Z,19.20
2019-06-20T12:22:41.709Z,18.80
2019-06-20T12:25:13.127Z,18.30
2019-06-20T12:27:43.029Z,17.80
2019-06-20T12:30:14.205Z,17.30
2019-06-20T12:32:42.869Z,17.40
2019-06-20T12:35:12.635Z,17.60
2019-06-20T12:37:42.694Z,17.90
2019-06-20T12:40:12.388Z,18.10
2019-06-20T12:42:41.798Z,18.40
2019-06-20T12:45:11.942Z,18.50
2019-06-20T12:47:41.794Z,18.50
2019-06-20T12:50:12.098Z,18.60
2019-06-20T12:52:41.390Z,18.60
2019-06-20T12:55:12.780Z,18.30
2019-06-20T12:57:42.247Z,18.20
2019-06-20T13:00:12.756Z,18.20
2019-06-20T13:02:41.942Z,18.60
2019-06-20T13:05:11.823Z,18.90
2019-06-20T13:07:42.168Z,19.10
2019-06-20T13:10:12.025Z,19.10
2019-06-20T13:12:42.525Z,19.30
2019-06-20T13:15:11.521Z,19.40
2019-06-20T13:17:41.957Z,19.40
2019-06-20T13:20:10.642Z,19.40
2019-06-20T13:22:40.860Z,19.50
2019-06-20T13:25:10.373Z,19.70
2019-06-20T13:27:39.670Z,20.10
2019-06-20T13:30:10.582Z,19.90
2019-06-20T13:32:41.173Z,19.80
2019-06-20T13:35:09.967Z,19.70
2019-06-20T13:37:39.814Z,19.70
2019-06-20T13:40:10.873Z,19.80
2019-06-20T13:42:41.970Z,19.90
2019-06-20T13:45:21.542Z,19.80
2019-06-20T13:47:50.556Z,19.90
2019-06-20T13:50:20.576Z,19.80
2019-06-20T13:52:51.048Z,19.20
2019-06-20T13:55:19.670Z,19.10
2019-06-20T13:57:49.216Z,19.20
2019-06-20T14:00:20.610Z,19.20
2019-06-20T14:02:51.156Z,19.00
2019-06-20T14:05:20.022Z,18.50
2019-06-20T14:07:51.842Z,18.10
2019-06-20T14:10:19.196Z,17.80
2019-06-20T14:12:48.755Z,17.80
2019-06-20T14:15:18.401Z,18.00
2019-06-20T14:17:47.485Z,18.10
2019-06-20T14:20:16.637Z,18.20
2019-06-20T14:22:45.267Z,18.30
2019-06-20T14:25:13.808Z,18.40
2019-06-20T14:27:43.770Z,18.60
2019-06-20T14:30:13.643Z,18.80
2019-06-20T14:32:43.286Z,18.80
2019-06-20T14:35:12.357Z,18.90
2019-06-20T14:37:43.341Z,19.00
2019-06-20T14:40:11.732Z,19.00
2019-06-20T14:42:40.185Z,19.00
2019-06-20T14:45:10.199Z,19.00
2019-06-20T14:47:38.860Z,19.00
2019-06-20T14:50:09.360Z,19.10
2019-06-20T14:52:38.216Z,19.30
2019-06-20T14:55:08.762Z,19.50
2019-06-20T14:57:37.406Z,19.70
2019-06-20T15:00:10.086Z,19.90
2019-06-20T15:02:39.212Z,20.10
2019-06-20T15:05:15.760Z,20.30
2019-06-20T15:07:45.694Z,20.50
2019-06-20T15:10:16.213Z,20.60
2019-06-20T15:12:46.019Z,20.70
2019-06-20T15:15:15.149Z,20.60
2019-06-20T15:17:46.547Z,20.80
2019-06-20T15:20:14.257Z,20.80
2019-06-20T15:22:43.133Z,20.70
2019-06-20T15:25:11.844Z,20.80
2019-06-20T15:27:40.378Z,20.70
2019-06-20T15:30:09.603Z,20.80
2019-06-20T15:32:53.058Z,20.90
2019-06-20T15:35:08.705Z,20.80
2019-06-20T15:37:37.293Z,20.80
2019-06-20T15:40:07.061Z,20.70
2019-06-20T15:42:35.729Z,20.70
2019-06-20T15:45:06.429Z,20.90
2019-06-20T15:47:34.928Z,21.10
2019-06-20T15:50:07.330Z,21.10
2019-06-20T15:52:35.845Z,20.90
2019-06-20T15:55:06.215Z,20.90
2019-06-20T15:57:34.801Z,20.90
2019-06-20T16:00:08.395Z,21.10
2019-06-20T16:02:36.908Z,21.30
2019-06-20T16:05:10.291Z,21.40
2019-06-20T16:07:39.832Z,21.40
2019-06-20T16:10:12.705Z,21.30
2019-06-20T16:12:41.150Z,21.30
2019-06-20T16:15:10.617Z,21.30
2019-06-20T16:17:39.293Z,21.10
2019-06-20T16:20:08.157Z,20.90
2019-06-20T16:22:36.753Z,20.50
2019-06-20T16:25:07.913Z,20.30
2019-06-20T16:27:36.481Z,20.10
2019-06-20T16:30:08.039Z,20.00
2019-06-20T16:32:36.485Z,19.90
2019-06-20T16:35:07.246Z,19.90
2019-06-20T16:37:35.811Z,19.90
2019-06-20T16:40:07.502Z,19.90
2019-06-20T16:42:35.995Z,19.90
2019-06-20T16:45:06.357Z,19.90
2019-06-20T16:47:35.074Z,19.90
2019-06-20T16:50:05.532Z,20.10
2019-06-20T16:52:34.119Z,20.20
2019-06-20T16:55:02.633Z,20.30
2019-06-20T16:57:31.251Z,20.30
2019-06-20T16:59:59.849Z,20.40
2019-06-20T17:02:28.296Z,20.50
2019-06-20T17:04:56.873Z,20.50
2019-06-20T17:07:25.579Z,20.50
2019-06-20T17:09:54.013Z,20.40
2019-06-20T17:12:22.441Z,20.30
2019-06-20T17:14:50.907Z,20.10
2019-06-20T17:17:19.414Z,20.10
2019-06-20T17:19:47.864Z,20.10
2019-06-20T17:22:16.599Z,20.20
2019-06-20T17:24:45.093Z,20.30
2019-06-20T17:27:13.530Z,20.30
2019-06-20T17:29:42.037Z,20.30
2019-06-20T17:32:10.479Z,20.30
2019-06-20T17:34:39.028Z,20.30
2019-06-20T17:37:07.494Z,20.40
2019-06-20T17:39:35.920Z,20.50
2019-06-20T17:42:04.440Z,20.50
2019-06-20T17:44:32.871Z,20.60
2019-06-20T17:47:01.300Z,20.70
2019-06-20T17:49:29.822Z,20.60
2019-06-20T17:51:58.261Z,20.50
2019-06-20T17:54:27.455Z,20.30
2019-06-20T17:56:55.908Z,20.30
2019-06-20T17:59:24.423Z,20.20
2019-06-20T18:01:52.945Z,20.20
2019-06-20T18:04:21.408Z,20.30
2019-06-20T18:06:49.846Z,20.30
2019-06-20T18:09:18.441Z,20.30
2019-06-20T18:11:46.874Z,20.30
2019-06-20T18:14:15.341Z,20.30
2019-06-20T18:16:43.869Z,20.30
2019-06-20T18:19:12.305Z,20.40
2019-06-20T18:21:40.765Z,20.40
2019-06-20T18:24:09.227Z,20.30
2019-06-20T18:26:37.815Z,20.40
2019-06-20T18:29:06.348Z,20.40
2019-06-20T18:31:34.940Z,20.40
2019-06-20T18:34:03.511Z,20.30
2019-06-20T18:36:31.929Z,20.20
2019-06-20T18:39:00.391Z,20.20
2019-06-20T18:41:28.905Z,20.20
2019-06-20T18:43:57.362Z,20.20
2019-06-20T18:46:25.810Z,20.20
2019-06-20T18:48:54.238Z,20.20
2019-06-20T18:51:22.681Z,20.20
2019-06-20T18:53:51.134Z,20.10
2019-06-20T18:56:19.650Z,20.10
2019-06-20T18:58:48.125Z,20.20
2019-06-20T19:01:16.588Z,20.20
2019-06-20T19:03:45.016Z,20.20
2019-06-20T19:06:13.483Z,20.20
2019-06-20T19:08:41.997Z,20.20
2019-06-20T19:11:10.567Z,20.10
2019-06-20T19:13:38.998Z,20.10
2019-06-20T19:16:07.533Z,20.00
2019-06-20T19:18:36.036Z,20.00
2019-06-20T19:21:04.525Z,19.90
2019-06-20T19:23:33.138Z,19.80
2019-06-20T19:26:01.652Z,19.70
2019-06-20T19:28:30.356Z,19.60
2019-06-20T19:30:58.894Z,19.50
2019-06-20T19:33:27.329Z,19.40
2019-06-20T19:35:55.821Z,19.20
2019-06-20T19:38:24.278Z,19.10
2019-06-20T19:40:52.855Z,19.00
2019-06-20T19:43:21.493Z,18.90
2019-06-20T19:45:50.002Z,18.80
2019-06-20T19:48:18.585Z,18.70
2019-06-20T19:50:47.368Z,18.60
2019-06-20T19:53:15.953Z,18.30
2019-06-20T19:55:44.644Z,18.30
2019-06-20T19:58:13.251Z,18.20
2019-06-20T20:00:41.668Z,18.10
2019-06-20T20:03:10.379Z,18.10
2019-06-20T20:05:38.849Z,18.00
2019-06-20T20:08:08.012Z,18.00
2019-06-20T20:10:42.060Z,17.90
2019-06-20T20:13:10.508Z,17.90
2019-06-20T20:15:38.937Z,17.90
2019-06-20T20:18:07.560Z,17.70
2019-06-20T20:20:36.052Z,17.70
2019-06-20T20:23:04.729Z,17.70
2019-06-20T20:25:33.250Z,17.70
2019-06-20T20:28:01.840Z,17.60
2019-06-20T20:30:30.481Z,17.60
2019-06-20T20:33:01.853Z,17.70
2019-06-20T20:35:35.467Z,17.70
2019-06-20T20:37:59.543Z,17.70
2019-06-20T20:40:28.334Z,17.70
2019-06-20T20:42:57.292Z,17.70
2019-06-20T20:45:26.534Z,17.70
2019-06-20T20:47:55.041Z,17.60
2019-06-20T20:50:23.638Z,17.50
2019-06-20T20:52:52.188Z,17.50
2019-06-20T20:55:21.317Z,17.50
2019-06-20T20:57:49.841Z,17.50
2019-06-20T21:00:30.585Z,17.40
2019-06-20T21:03:00.317Z,17.30
2019-06-20T21:05:28.853Z,17.30
2019-06-20T21:07:57.282Z,17.30
2019-06-20T21:10:25.848Z,17.30
2019-06-20T21:12:54.423Z,17.30
2019-06-20T21:15:23.240Z,17.20
2019-06-20T21:17:51.774Z,17.30
2019-06-20T21:20:20.637Z,17.30
2019-06-20T21:22:49.145Z,17.20
2019-06-20T21:25:17.676Z,17.30
2019-06-20T21:27:46.127Z,17.30
2019-06-20T21:30:15.088Z,17.40
2019-06-20T21:32:43.581Z,17.50
2019-06-20T21:35:12.288Z,17.50
2019-06-20T21:37:40.762Z,17.50
2019-06-20T21:40:10.213Z,17.40
2019-06-20T21:42:38.644Z,17.40
2019-06-20T21:45:09.185Z,17.20
2019-06-20T21:47:37.772Z,17.20
2019-06-20T21:50:06.759Z,17.20
2019-06-20T21:52:35.537Z,17.10
2019-06-20T21:55:05.924Z,17.20
2019-06-20T21:57:34.668Z,17.20
2019-06-20T22:00:07.700Z,17.20
2019-06-20T22:02:36.157Z,17.20
2019-06-20T22:05:06.696Z,17.10
2019-06-20T22:07:35.116Z,17.10
2019-06-20T22:10:05.517Z,17.10
2019-06-20T22:12:34.037Z,17.10
2019-06-20T22:15:02.477Z,17.00
2019-06-20T22:17:31.136Z,17.00
2019-06-20T22:19:59.580Z,17.10
2019-06-20T22:22:28.062Z,17.10
2019-06-20T22:24:56.649Z,17.10
2019-06-20T22:27:25.078Z,17.20
2019-06-20T22:29:53.518Z,17.20
2019-06-20T22:32:22.236Z,17.30
2019-06-20T22:34:50.685Z,17.40
2019-06-20T22:37:19.213Z,17.40
2019-06-20T22:39:47.727Z,17.30
2019-06-20T22:42:16.197Z,17.20
2019-06-20T22:44:44.706Z,17.10
2019-06-20T22:47:13.133Z,17.10
2019-06-20T22:49:41.653Z,17.10
2019-06-20T22:52:10.093Z,17.10
2019-06-20T22:54:38.524Z,17.00
2019-06-20T22:57:07.020Z,16.90
2019-06-20T22:59:35.517Z,16.90
2019-06-20T23:02:04.045Z,16.90
2019-06-20T23:04:32.625Z,16.90
2019-06-20T23:07:01.381Z,16.80
2019-06-20T23:09:29.907Z,16.80
2019-06-20T23:11:58.353Z,16.70
2019-06-20T23:14:26.857Z,16.60
2019-06-20T23:16:55.309Z,16.60
2019-06-20T23:19:23.740Z,16.60
2019-06-20T23:21:52.165Z,16.60
2019-06-20T23:24:20.696Z,16.60
2019-06-20T23:26:49.202Z,16.60
2019-06-20T23:29:23.804Z,16.50
2019-06-20T23:31:53.839Z,16.50
2019-06-20T23:34:22.337Z,16.50
2019-06-20T23:36:51.007Z,16.40
2019-06-20T23:39:19.458Z,16.40
2019-06-20T23:41:47.986Z,16.30
2019-06-20T23:44:16.599Z,16.30
2019-06-20T23:46:45.176Z,16.30
2019-06-20T23:49:13.777Z,16.30
2019-06-20T23:51:43.919Z,16.30
2019-06-20T23:54:12.377Z,16.40
2019-06-20T23:56:40.859Z,16.40
2019-06-20T23:59:09.290Z,16.40
